Timeline UpdatesTrip UpdatesNews PostsPvt PostsTravel TipsAdmin PostsConv PostsFollowed PostsChat RequestsBlog PostsPNR Posts

Disclaimer
Search
 
 
Tue Sep 30, 2014 17:23:52 ISTHomeTrainsΣChainsAtlasPNRForumGalleryNewsFAQTripsMembersLoginFeedback
No Recent News for this Train
Other Trains in the News **new
Latest...
Will be diverted via Malkhedi-Agasod chord line avoiding Bina station from 24th march 2014
Wed Jan 29, 2014 (09:06PM)
⇐ Return Journey: Train# 18508

18507/Hirakud (Hirakund) Express

Time-Table HAS CHANGED.
Sep 03 (11:40AM)
Change Departure Station:
Change Arrival Station:
Post a Train Travel TipPost a Train Travel Tip **new
Post a Comment/Question/Picture/VideoPost a Comment/Question/Picture/Video
Pantry/Catering
✓ Pantry Car Avbl
✓ Catering Avbl
Loco/Rake Reversals
TLHR/Talcher; SBP/Sambalpur Junction (3); JSG/Jharsuguda Junction (5);
RSA - Rake Sharing
Rake/Coach Composition
LOCO-SLR-GEN-GEN-GEN-GEN-S1-S2-S3-S4-S5-S6-PC-S7-S8-S9-S10-A1-B1-B2-GEN-GEN-SLR;; News/163411
Loco
VSKP-JSG- WDM-3A VSKP JSG-ASR -WAP-1/4 GZB Blog entry #541879-2
News    PNR    Forum    Time-Table    Availability    Fare Chart    Map    Arr/Dep History    Trips    Gallery    ΣChains    X/O    Timeline    
Travel Time: 11h 40m    7 halts    Distance: 590 km    Avg Speed: 50 km/hr
Type: Mail/Express
Zone: ECoR/East Coast
Departs @ 12:15 (Avg 42m late)
Platform# 2
S  W  S
Mathura Junction/MTJ 
Arrives @ 23:55 (Avg 23m late)
Platform# 2
S  W  S
Amritsar Junction/ASR 

7 halts. 96 intermediate Stations between Mathura Junction and Amritsar Junction

Show ALL intermediate Stations  Show Old Time-Table

#CodeStation NameX/OArrivesAvgDepartsAvgHaltPFDay#KmSpeedElevZoneAddress
1VSKPVisakhapatnam Junction (8)  -23:50+481-1984.56711mECoRVishakhapatnam 530001, Andhra Pradesh
2VZMVizianagaram Junction (5)XO  00:45+1700:50+165m--2-1923.37963mECoRVizianagaram, Andhra Pradesh
3CHESrikakulam Road (4)  01:43+901:45+92m--2-1853.86034mECoRsrikakulam road ph .no. 08942-287222, Andhra Pradesh
4PSAPalasa (3)  02:58+703:00+92m--2-1780.87431mECoRKasibugga, Andhra Pradesh
5BAMBrahmapur (3)  03:55 04:00+1304:00 04:02+155 2m12-1706.58027mECoRBerhampur, Odisha
6CAPChatrapur  04:18+1604:19 04:20+161 2m--2-1685.17336mECoRChatrapur, Odisha
7BALUBalugaon (3)  05:05+1105:06 05:07+121 2m--2-1630.45511mECoR752030, Odisha
8KURKhurda Road Junction (7)XO  06:25+606:40+715m--2-1559.45725mECoRKhordha, Odisha
9BBSBhubaneswar (4)X  07:05 07:00+807:10 07:05+105m22-1540.45440mECoRBhubaneshwar, Odisha
10DNKLDhenkanal (2)  08:17 08:13+1408:18 08:15+151 2m--2-1478.77859mECoRDhenkanal, Odisha
11TLHRTalcherX09:00 08:55+2509:25 09:20+2625m--2-1426.51586mECoRSub-division Angul district, Odisha
12ANGLAngul (2)X  10:33+310:35+52m--2-1408.375120mECoRAngul District, Odisha
13BONABoinda  11:07 11:06+1211:08+121 2m--2-1369.475292mECoRState Highway 62, Odisha
14RAIRRairakhol  11:44 11:45+1711:45 11:47+181 2m--2-1322.958144mECoRSH 24, Odisha
15SBPSambalpur Junction (3)13:00+713:20+1020m12-1251.818159mECoRSambalpur, Odisha
16SBPDSambalpur Road  13:26 13:25-13:28 13:27-2m22-1250.339161mECoRSambalpur, Odisha
17JSGJharsuguda Junction (5)XOO14:40+615:15+835m12-1203.288236mSERJharsuguda, Odisha
18BRJNBrajrajnagar  15:24 15:23+1515:25+161 2m--2-1191.567212mSECRBrajrajnagar, Odisha
19BPHBelpahar  15:34 15:33+1715:35+211 2m--2-1182.685 SECRBelpahar, Odisha
20RIGRaigarh (3)  16:11+2716:13+292m--2-1131.593220mSECRRaigarh, Chhattisgarh
21KHSKharsia  16:36 16:35+3816:37+381 2m--2-1097.677 SECRNational Highway 200, Chhattisgarh
22SKTSakti (4)  16:50 16:49+4016:51+401 2m--2-1082.252237mSECRJanjgir-Champa, Chhattisgarh
23CPHChampa Junction (3)X  17:26+3517:31+335m22-1051.874264mSECRNational Highway 200 (07819-245767), Chhattisgarh
24AKTAkaltara (4)  17:53 17:52+3317:54+341 2m--2-1026.029284mSECRDist. Janjgir Champa, Chhattisgarh
25BSPBilaspur Junction (8)  18:50+819:05+1315m52-998.862271mSECRBilaspur, Chhattisgarh
26PNDPendra Road  20:43+4820:45+492m--2-897.261620mSECRBilaspur district, Chhattisgarh
27APRAnuppur Junction (4)  21:35+5321:40+525m--2-846.155487mSECRAnuppur, Madhya Pradesh
28SDLShahdol  22:25+4422:27+442m--2-805.265466mSECR, Madhya Pradesh
29UMRUmaria (3)X  23:35 23:29+3723:37 23:31+382m--2-737.931469mSECRUmaria, Madhya Pradesh
30KMZKatni Murwara  01:25+1501:35+1710m--3-679.174385mWCRMP 483504 ?, Madhya Pradesh
31DMODamoh (2)  03:03+2603:05+262m--3-570.066365mWCRDamoh, Madhya Pradesh
32SGOSaugor (2)  04:15+2804:20+275m--3-492.960519mWCRMP 470001Madhya pradesh, Madhya Pradesh
33KYEKhurai (5)  05:13+1905:15+192m--3-440.137439mWCRKhurai, Madhya Pradesh
34MAKRMalkheri Junction (2)  05:53 05:43+705:55 05:45+102m--3-422.962421mWCRGuna, Madhya Pradesh
35LARLalitpur (3)X  07:04 06:46+1007:05 06:48+191 2m33-359.775373mNCRLalitpur, Uttar Pradesh
36JHSJhansi Junction (7)  08:20 08:00+1408:28 08:10+218 10m23-269.484259mNCRJhansi, Uttar Pradesh
37GWLGwalior Junction (4)X  09:45 09:20+2909:50 09:25+305m23-171.759214mNCRGwalior, Madhya Pradesh
38AGCAgra Cantt. (6)X  11:25+3211:30+355m13-53.777174mNCRAgra, Uttar Pradesh
39MTJMathura Junction (10)»X  12:12+4212:15+423m230.067179mNCRMathura, Uttar Pradesh
40NZMDelhi Hazrat Nizamuddin (7)XO  14:15+3914:17+392m33134.019209mNRNew Delhi 110013, Delhi NCT
41NDLSNew Delhi (16)X  14:45 14:40+3915:15 15:00+3630 20m73141.355215mNRNew Delhi, Delhi NCT
42PNPPanipat Junction (5)  16:37+1:0216:39+1:022m33231.057235mNRPanipat, Haryana
43UMBAmbala Cantt. Junction (7)O  18:35+4018:45+4210m73340.680278mNRAmbala 133001, Haryana
44LDHLudhiana Junction (7)X  20:10+5520:15+1:105m33454.243246mNRLudhiana 141001, Punjab
45JUCJalandhar City Junction (5)  21:35+1:0221:40+1:055m33511.057239mNRJalandhar 144001, Punjab
46BEASBeas Junction (2)  22:18+1:0822:19+1:091m13547.127238mNRBeas, Punjab
47ASRAmritsar Junction (5)•  23:55+23-23590.1-233mNRAmritsar 143002, Punjab
Scroll to Top
Scroll to Bottom